<?xml version="1.0" encoding="UTF-8" standalone="no" ?>
<gpx xmlns="http://www.topografix.com/GPX/1/1" xmlns:xsi="http://www.w3.org/2001/XMLSchema-instance" xsi:schemaLocation="http://www.topografix.com/GPX/1/1 http://www.topografix.com/GPX/1/1/gpx.xsd" version="1.1" creator="VisuGPX - https://www.visugpx.com">
  <metadata>
    <name>Davrinche20101</name>
    <desc><![CDATA[la partie 1 des repérages]]></desc>
  </metadata>
  <trk>
    <name><![CDATA[--Volvic-- OR-5370344:ser-fr02-b]]></name>
    <trkseg>
      <trkpt lat="45.87259" lon="2.99019">
        <ele>784</ele>
        <time>2015-10-17T14:41:24Z</time>
      </trkpt>
      <trkpt lat="45.8727" lon="2.98987">
        <ele>784</ele>
        <time>2015-10-17T14:43:24Z</time>
      </trkpt>
      <trkpt lat="45.87256" lon="2.98942">
        <ele>786</ele>
        <time>2015-10-17T14:45:24Z</time>
      </trkpt>
      <trkpt lat="45.87259" lon="2.98888">
        <ele>788</ele>
        <time>2015-10-17T14:47:24Z</time>
      </trkpt>
      <trkpt lat="45.87273" lon="2.98821">
        <ele>787</ele>
        <time>2015-10-17T14:49:24Z</time>
      </trkpt>
      <trkpt lat="45.87268" lon="2.98759">
        <ele>789</ele>
        <time>2015-10-17T14:51:24Z</time>
      </trkpt>
      <trkpt lat="45.87261" lon="2.98684">
        <ele>792</ele>
        <time>2015-10-17T14:53:24Z</time>
      </trkpt>
      <trkpt lat="45.87268" lon="2.98641">
        <ele>793</ele>
        <time>2015-10-17T14:55:24Z</time>
      </trkpt>
      <trkpt lat="45.87294" lon="2.9856">
        <ele>793</ele>
        <time>2015-10-17T14:57:24Z</time>
      </trkpt>
      <trkpt lat="45.87267" lon="2.9854">
        <ele>795</ele>
        <time>2015-10-17T14:59:24Z</time>
      </trkpt>
      <trkpt lat="45.87241" lon="2.9851">
        <ele>797</ele>
        <time>2015-10-17T15:01:24Z</time>
      </trkpt>
      <trkpt lat="45.87253" lon="2.98442">
        <ele>799</ele>
        <time>2015-10-17T15:03:24Z</time>
      </trkpt>
      <trkpt lat="45.87226" lon="2.98382">
        <ele>803</ele>
        <time>2015-10-17T15:05:24Z</time>
      </trkpt>
      <trkpt lat="45.87226" lon="2.98313">
        <ele>805</ele>
        <time>2015-10-17T15:07:24Z</time>
      </trkpt>
      <trkpt lat="45.87203" lon="2.98229">
        <ele>808</ele>
        <time>2015-10-17T15:09:24Z</time>
      </trkpt>
      <trkpt lat="45.87176" lon="2.98148">
        <ele>810</ele>
        <time>2015-10-17T15:11:24Z</time>
      </trkpt>
      <trkpt lat="45.87149" lon="2.98107">
        <ele>811</ele>
        <time>2015-10-17T15:13:24Z</time>
      </trkpt>
      <trkpt lat="45.87132" lon="2.98088">
        <ele>812</ele>
        <time>2015-10-17T15:15:24Z</time>
      </trkpt>
      <trkpt lat="45.87126" lon="2.98137">
        <ele>813</ele>
        <time>2015-10-17T15:17:24Z</time>
      </trkpt>
      <trkpt lat="45.87086" lon="2.98154">
        <ele>816</ele>
        <time>2015-10-17T15:19:24Z</time>
      </trkpt>
      <trkpt lat="45.8705" lon="2.98163">
        <ele>816</ele>
        <time>2015-10-17T15:21:24Z</time>
      </trkpt>
      <trkpt lat="45.87017" lon="2.98182">
        <ele>816</ele>
        <time>2015-10-17T15:23:24Z</time>
      </trkpt>
      <trkpt lat="45.86977" lon="2.98195">
        <ele>816</ele>
        <time>2015-10-17T15:25:24Z</time>
      </trkpt>
      <trkpt lat="45.86946" lon="2.9821">
        <ele>815</ele>
        <time>2015-10-17T15:27:24Z</time>
      </trkpt>
      <trkpt lat="45.86917" lon="2.98236">
        <ele>815</ele>
        <time>2015-10-17T15:29:24Z</time>
      </trkpt>
      <trkpt lat="45.86887" lon="2.9827">
        <ele>816</ele>
        <time>2015-10-17T15:31:24Z</time>
      </trkpt>
      <trkpt lat="45.86872" lon="2.98289">
        <ele>816</ele>
        <time>2015-10-17T15:33:24Z</time>
      </trkpt>
      <trkpt lat="45.86847" lon="2.98315">
        <ele>817</ele>
        <time>2015-10-17T15:35:24Z</time>
      </trkpt>
      <trkpt lat="45.86819" lon="2.98341">
        <ele>819</ele>
        <time>2015-10-17T15:37:24Z</time>
      </trkpt>
      <trkpt lat="45.86792" lon="2.98369">
        <ele>822</ele>
        <time>2015-10-17T15:39:24Z</time>
      </trkpt>
      <trkpt lat="45.86762" lon="2.98403">
        <ele>825</ele>
        <time>2015-10-17T15:41:24Z</time>
      </trkpt>
      <trkpt lat="45.86753" lon="2.98452">
        <ele>825</ele>
        <time>2015-10-17T15:43:24Z</time>
      </trkpt>
      <trkpt lat="45.86742" lon="2.98495">
        <ele>826</ele>
        <time>2015-10-17T15:45:24Z</time>
      </trkpt>
      <trkpt lat="45.8672" lon="2.98532">
        <ele>830</ele>
        <time>2015-10-17T15:47:24Z</time>
      </trkpt>
      <trkpt lat="45.86699" lon="2.98551">
        <ele>833</ele>
        <time>2015-10-17T15:49:24Z</time>
      </trkpt>
      <trkpt lat="45.86678" lon="2.9857">
        <ele>837</ele>
        <time>2015-10-17T15:51:24Z</time>
      </trkpt>
      <trkpt lat="45.86659" lon="2.98592">
        <ele>842</ele>
        <time>2015-10-17T15:53:24Z</time>
      </trkpt>
      <trkpt lat="45.86639" lon="2.98635">
        <ele>847</ele>
        <time>2015-10-17T15:55:24Z</time>
      </trkpt>
      <trkpt lat="45.86626" lon="2.98658">
        <ele>850</ele>
        <time>2015-10-17T15:57:24Z</time>
      </trkpt>
      <trkpt lat="45.8659" lon="2.9868">
        <ele>856</ele>
        <time>2015-10-17T15:59:24Z</time>
      </trkpt>
      <trkpt lat="45.86548" lon="2.98658">
        <ele>864</ele>
        <time>2015-10-17T16:01:24Z</time>
      </trkpt>
      <trkpt lat="45.86502" lon="2.98641">
        <ele>873</ele>
        <time>2015-10-17T16:03:24Z</time>
      </trkpt>
      <trkpt lat="45.86476" lon="2.98635">
        <ele>877</ele>
        <time>2015-10-17T16:05:24Z</time>
      </trkpt>
      <trkpt lat="45.86448" lon="2.9863">
        <ele>881</ele>
        <time>2015-10-17T16:07:24Z</time>
      </trkpt>
      <trkpt lat="45.86424" lon="2.98628">
        <ele>884</ele>
        <time>2015-10-17T16:09:24Z</time>
      </trkpt>
      <trkpt lat="45.86412" lon="2.98635">
        <ele>885</ele>
        <time>2015-10-17T16:11:24Z</time>
      </trkpt>
      <trkpt lat="45.86391" lon="2.9863">
        <ele>891</ele>
        <time>2015-10-17T16:13:24Z</time>
      </trkpt>
      <trkpt lat="45.86367" lon="2.9863">
        <ele>897</ele>
        <time>2015-10-17T16:15:24Z</time>
      </trkpt>
      <trkpt lat="45.86343" lon="2.98658">
        <ele>897</ele>
        <time>2015-10-17T16:17:24Z</time>
      </trkpt>
      <trkpt lat="45.86332" lon="2.98678">
        <ele>897</ele>
        <time>2015-10-17T16:19:24Z</time>
      </trkpt>
      <trkpt lat="45.86302" lon="2.98678">
        <ele>909</ele>
        <time>2015-10-17T16:21:24Z</time>
      </trkpt>
      <trkpt lat="45.8627" lon="2.9866">
        <ele>924</ele>
        <time>2015-10-17T16:23:24Z</time>
      </trkpt>
      <trkpt lat="45.86242" lon="2.98658">
        <ele>933</ele>
        <time>2015-10-17T16:25:24Z</time>
      </trkpt>
      <trkpt lat="45.86213" lon="2.98643">
        <ele>937</ele>
        <time>2015-10-17T16:27:24Z</time>
      </trkpt>
      <trkpt lat="45.86187" lon="2.9862">
        <ele>939</ele>
        <time>2015-10-17T16:29:24Z</time>
      </trkpt>
      <trkpt lat="45.86157" lon="2.98583">
        <ele>934</ele>
        <time>2015-10-17T16:31:24Z</time>
      </trkpt>
      <trkpt lat="45.86145" lon="2.98562">
        <ele>936</ele>
        <time>2015-10-17T16:33:24Z</time>
      </trkpt>
      <trkpt lat="45.86122" lon="2.98557">
        <ele>934</ele>
        <time>2015-10-17T16:35:24Z</time>
      </trkpt>
      <trkpt lat="45.86101" lon="2.98551">
        <ele>932</ele>
        <time>2015-10-17T16:37:24Z</time>
      </trkpt>
      <trkpt lat="45.86074" lon="2.98549">
        <ele>932</ele>
        <time>2015-10-17T16:39:24Z</time>
      </trkpt>
      <trkpt lat="45.86055" lon="2.98549">
        <ele>934</ele>
        <time>2015-10-17T16:41:24Z</time>
      </trkpt>
      <trkpt lat="45.86018" lon="2.98575">
        <ele>935</ele>
        <time>2015-10-17T16:43:24Z</time>
      </trkpt>
      <trkpt lat="45.86001" lon="2.9862">
        <ele>939</ele>
        <time>2015-10-17T16:45:24Z</time>
      </trkpt>
      <trkpt lat="45.85985" lon="2.98648">
        <ele>944</ele>
        <time>2015-10-17T16:47:24Z</time>
      </trkpt>
      <trkpt lat="45.85973" lon="2.98652">
        <ele>946</ele>
        <time>2015-10-17T16:49:24Z</time>
      </trkpt>
      <trkpt lat="45.85968" lon="2.98684">
        <ele>948</ele>
        <time>2015-10-17T16:51:24Z</time>
      </trkpt>
      <trkpt lat="45.85952" lon="2.98697">
        <ele>951</ele>
        <time>2015-10-17T16:53:24Z</time>
      </trkpt>
      <trkpt lat="45.85937" lon="2.9869">
        <ele>952</ele>
        <time>2015-10-17T16:55:24Z</time>
      </trkpt>
      <trkpt lat="45.85922" lon="2.98665">
        <ele>953</ele>
        <time>2015-10-17T16:57:24Z</time>
      </trkpt>
      <trkpt lat="45.85918" lon="2.98611">
        <ele>956</ele>
        <time>2015-10-17T16:59:24Z</time>
      </trkpt>
      <trkpt lat="45.85909" lon="2.9859">
        <ele>956</ele>
        <time>2015-10-17T17:01:24Z</time>
      </trkpt>
      <trkpt lat="45.85901" lon="2.98564">
        <ele>957</ele>
        <time>2015-10-17T17:03:24Z</time>
      </trkpt>
      <trkpt lat="45.85901" lon="2.98525">
        <ele>962</ele>
        <time>2015-10-17T17:05:24Z</time>
      </trkpt>
      <trkpt lat="45.85891" lon="2.98497">
        <ele>963</ele>
        <time>2015-10-17T17:07:24Z</time>
      </trkpt>
      <trkpt lat="45.85885" lon="2.98472">
        <ele>963</ele>
        <time>2015-10-17T17:09:24Z</time>
      </trkpt>
      <trkpt lat="45.85882" lon="2.98444">
        <ele>964</ele>
        <time>2015-10-17T17:11:24Z</time>
      </trkpt>
      <trkpt lat="45.85868" lon="2.98416">
        <ele>961</ele>
        <time>2015-10-17T17:13:24Z</time>
      </trkpt>
      <trkpt lat="45.85843" lon="2.98394">
        <ele>953</ele>
        <time>2015-10-17T17:15:24Z</time>
      </trkpt>
      <trkpt lat="45.85835" lon="2.98371">
        <ele>950</ele>
        <time>2015-10-17T17:17:24Z</time>
      </trkpt>
      <trkpt lat="45.85819" lon="2.98351">
        <ele>944</ele>
        <time>2015-10-17T17:19:24Z</time>
      </trkpt>
      <trkpt lat="45.85804" lon="2.98321">
        <ele>938</ele>
        <time>2015-10-17T17:21:24Z</time>
      </trkpt>
      <trkpt lat="45.85801" lon="2.98283">
        <ele>934</ele>
        <time>2015-10-17T17:23:24Z</time>
      </trkpt>
      <trkpt lat="45.85801" lon="2.98255">
        <ele>932</ele>
        <time>2015-10-17T17:25:24Z</time>
      </trkpt>
      <trkpt lat="45.858" lon="2.98223">
        <ele>929</ele>
        <time>2015-10-17T17:27:24Z</time>
      </trkpt>
      <trkpt lat="45.85829" lon="2.98184">
        <ele>933</ele>
        <time>2015-10-17T17:29:24Z</time>
      </trkpt>
      <trkpt lat="45.85871" lon="2.98128">
        <ele>926</ele>
        <time>2015-10-17T17:31:24Z</time>
      </trkpt>
      <trkpt lat="45.85861" lon="2.9809">
        <ele>918</ele>
        <time>2015-10-17T17:33:24Z</time>
      </trkpt>
      <trkpt lat="45.85844" lon="2.9806">
        <ele>910</ele>
        <time>2015-10-17T17:35:24Z</time>
      </trkpt>
      <trkpt lat="45.85826" lon="2.98049">
        <ele>906</ele>
        <time>2015-10-17T17:37:24Z</time>
      </trkpt>
      <trkpt lat="45.85789" lon="2.98021">
        <ele>897</ele>
        <time>2015-10-17T17:39:24Z</time>
      </trkpt>
      <trkpt lat="45.8577" lon="2.98038">
        <ele>898</ele>
        <time>2015-10-17T17:41:24Z</time>
      </trkpt>
      <trkpt lat="45.85755" lon="2.98023">
        <ele>895</ele>
        <time>2015-10-17T17:43:24Z</time>
      </trkpt>
      <trkpt lat="45.85734" lon="2.9803">
        <ele>894</ele>
        <time>2015-10-17T17:45:24Z</time>
      </trkpt>
      <trkpt lat="45.85719" lon="2.98053">
        <ele>894</ele>
        <time>2015-10-17T17:47:24Z</time>
      </trkpt>
      <trkpt lat="45.85708" lon="2.9807">
        <ele>893</ele>
        <time>2015-10-17T17:49:24Z</time>
      </trkpt>
      <trkpt lat="45.85689" lon="2.9809">
        <ele>891</ele>
        <time>2015-10-17T17:51:24Z</time>
      </trkpt>
      <trkpt lat="45.8567" lon="2.981">
        <ele>888</ele>
        <time>2015-10-17T17:53:24Z</time>
      </trkpt>
      <trkpt lat="45.85656" lon="2.98042">
        <ele>889</ele>
        <time>2015-10-17T17:55:24Z</time>
      </trkpt>
      <trkpt lat="45.85641" lon="2.98006">
        <ele>891</ele>
        <time>2015-10-17T17:57:24Z</time>
      </trkpt>
      <trkpt lat="45.85631" lon="2.9797">
        <ele>892</ele>
        <time>2015-10-17T17:59:24Z</time>
      </trkpt>
      <trkpt lat="45.85625" lon="2.97952">
        <ele>893</ele>
        <time>2015-10-17T18:01:24Z</time>
      </trkpt>
      <trkpt lat="45.85608" lon="2.97948">
        <ele>895</ele>
        <time>2015-10-17T18:03:24Z</time>
      </trkpt>
      <trkpt lat="45.85589" lon="2.97927">
        <ele>898</ele>
        <time>2015-10-17T18:05:24Z</time>
      </trkpt>
      <trkpt lat="45.85575" lon="2.97901">
        <ele>900</ele>
        <time>2015-10-17T18:07:24Z</time>
      </trkpt>
      <trkpt lat="45.85553" lon="2.97886">
        <ele>904</ele>
        <time>2015-10-17T18:09:24Z</time>
      </trkpt>
      <trkpt lat="45.85522" lon="2.97869">
        <ele>908</ele>
        <time>2015-10-17T18:11:24Z</time>
      </trkpt>
      <trkpt lat="45.85496" lon="2.97847">
        <ele>910</ele>
        <time>2015-10-17T18:13:24Z</time>
      </trkpt>
      <trkpt lat="45.85469" lon="2.97834">
        <ele>912</ele>
        <time>2015-10-17T18:15:24Z</time>
      </trkpt>
      <trkpt lat="45.85456" lon="2.97839">
        <ele>914</ele>
        <time>2015-10-17T18:17:24Z</time>
      </trkpt>
      <trkpt lat="45.85427" lon="2.97809">
        <ele>918</ele>
        <time>2015-10-17T18:19:24Z</time>
      </trkpt>
      <trkpt lat="45.85404" lon="2.97809">
        <ele>919</ele>
        <time>2015-10-17T18:21:24Z</time>
      </trkpt>
      <trkpt lat="45.85375" lon="2.978">
        <ele>920</ele>
        <time>2015-10-17T18:23:24Z</time>
      </trkpt>
      <trkpt lat="45.85354" lon="2.9777">
        <ele>922</ele>
        <time>2015-10-17T18:25:24Z</time>
      </trkpt>
      <trkpt lat="45.85339" lon="2.97736">
        <ele>926</ele>
        <time>2015-10-17T18:27:24Z</time>
      </trkpt>
      <trkpt lat="45.85317" lon="2.97695">
        <ele>931</ele>
        <time>2015-10-17T18:29:24Z</time>
      </trkpt>
      <trkpt lat="45.8529" lon="2.97661">
        <ele>934</ele>
        <time>2015-10-17T18:31:24Z</time>
      </trkpt>
      <trkpt lat="45.8527" lon="2.97635">
        <ele>936</ele>
        <time>2015-10-17T18:33:24Z</time>
      </trkpt>
      <trkpt lat="45.85256" lon="2.97613">
        <ele>938</ele>
        <time>2015-10-17T18:35:24Z</time>
      </trkpt>
      <trkpt lat="45.85236" lon="2.9757">
        <ele>944</ele>
        <time>2015-10-17T18:37:24Z</time>
      </trkpt>
      <trkpt lat="45.85217" lon="2.97538">
        <ele>950</ele>
        <time>2015-10-17T18:39:24Z</time>
      </trkpt>
      <trkpt lat="45.85206" lon="2.97506">
        <ele>957</ele>
        <time>2015-10-17T18:41:24Z</time>
      </trkpt>
      <trkpt lat="45.85187" lon="2.9748">
        <ele>962</ele>
        <time>2015-10-17T18:43:24Z</time>
      </trkpt>
      <trkpt lat="45.85169" lon="2.97459">
        <ele>966</ele>
        <time>2015-10-17T18:45:24Z</time>
      </trkpt>
      <trkpt lat="45.85154" lon="2.97437">
        <ele>970</ele>
        <time>2015-10-17T18:47:24Z</time>
      </trkpt>
      <trkpt lat="45.85142" lon="2.97401">
        <ele>978</ele>
        <time>2015-10-17T18:49:24Z</time>
      </trkpt>
      <trkpt lat="45.85129" lon="2.97379">
        <ele>982</ele>
        <time>2015-10-17T18:51:24Z</time>
      </trkpt>
      <trkpt lat="45.85105" lon="2.97371">
        <ele>983</ele>
        <time>2015-10-17T18:53:24Z</time>
      </trkpt>
      <trkpt lat="45.85081" lon="2.97364">
        <ele>984</ele>
        <time>2015-10-17T18:55:24Z</time>
      </trkpt>
      <trkpt lat="45.85102" lon="2.97313">
        <ele>994</ele>
        <time>2015-10-17T18:57:24Z</time>
      </trkpt>
      <trkpt lat="45.85127" lon="2.97268">
        <ele>1000</ele>
        <time>2015-10-17T18:59:24Z</time>
      </trkpt>
      <trkpt lat="45.85167" lon="2.9724">
        <ele>1002</ele>
        <time>2015-10-17T19:01:24Z</time>
      </trkpt>
      <trkpt lat="45.85157" lon="2.97229">
        <ele>1003</ele>
        <time>2015-10-17T19:03:24Z</time>
      </trkpt>
      <trkpt lat="45.85193" lon="2.97171">
        <ele>1005</ele>
        <time>2015-10-17T19:05:24Z</time>
      </trkpt>
      <trkpt lat="45.85209" lon="2.97141">
        <ele>1006</ele>
        <time>2015-10-17T19:07:24Z</time>
      </trkpt>
      <trkpt lat="45.85217" lon="2.97111">
        <ele>1007</ele>
        <time>2015-10-17T19:09:24Z</time>
      </trkpt>
      <trkpt lat="45.85215" lon="2.97081">
        <ele>1007</ele>
        <time>2015-10-17T19:11:24Z</time>
      </trkpt>
      <trkpt lat="45.85245" lon="2.97013">
        <ele>1010</ele>
        <time>2015-10-17T19:13:24Z</time>
      </trkpt>
      <trkpt lat="45.8525" lon="2.96937">
        <ele>1014</ele>
        <time>2015-10-17T19:15:24Z</time>
      </trkpt>
      <trkpt lat="45.85241" lon="2.96879">
        <ele>1017</ele>
        <time>2015-10-17T19:17:24Z</time>
      </trkpt>
      <trkpt lat="45.8523" lon="2.96849">
        <ele>1019</ele>
        <time>2015-10-17T19:19:24Z</time>
      </trkpt>
      <trkpt lat="45.85241" lon="2.96819">
        <ele>1019</ele>
        <time>2015-10-17T19:21:24Z</time>
      </trkpt>
      <trkpt lat="45.85251" lon="2.96774">
        <ele>1019</ele>
        <time>2015-10-17T19:23:24Z</time>
      </trkpt>
      <trkpt lat="45.85288" lon="2.9671">
        <ele>1016</ele>
        <time>2015-10-17T19:25:24Z</time>
      </trkpt>
      <trkpt lat="45.85291" lon="2.96669">
        <ele>1017</ele>
        <time>2015-10-17T19:27:24Z</time>
      </trkpt>
      <trkpt lat="45.85282" lon="2.96624">
        <ele>1019</ele>
        <time>2015-10-17T19:29:24Z</time>
      </trkpt>
      <trkpt lat="45.85265" lon="2.96611">
        <ele>1022</ele>
        <time>2015-10-17T19:31:24Z</time>
      </trkpt>
      <trkpt lat="45.85254" lon="2.96564">
        <ele>1025</ele>
        <time>2015-10-17T19:33:24Z</time>
      </trkpt>
      <trkpt lat="45.85238" lon="2.96528">
        <ele>1030</ele>
        <time>2015-10-17T19:35:24Z</time>
      </trkpt>
      <trkpt lat="45.85209" lon="2.96459">
        <ele>1036</ele>
        <time>2015-10-17T19:37:24Z</time>
      </trkpt>
      <trkpt lat="45.85187" lon="2.96433">
        <ele>1038</ele>
        <time>2015-10-17T19:39:24Z</time>
      </trkpt>
      <trkpt lat="45.85173" lon="2.96412">
        <ele>1037</ele>
        <time>2015-10-17T19:41:24Z</time>
      </trkpt>
      <trkpt lat="45.85157" lon="2.96395">
        <ele>1039</ele>
        <time>2015-10-17T19:43:24Z</time>
      </trkpt>
      <trkpt lat="45.85136" lon="2.96364">
        <ele>1039</ele>
        <time>2015-10-17T19:45:24Z</time>
      </trkpt>
      <trkpt lat="45.85116" lon="2.96345">
        <ele>1039</ele>
        <time>2015-10-17T19:47:24Z</time>
      </trkpt>
      <trkpt lat="45.85103" lon="2.9633">
        <ele>1037</ele>
        <time>2015-10-17T19:49:24Z</time>
      </trkpt>
      <trkpt lat="45.85089" lon="2.96311">
        <ele>1035</ele>
        <time>2015-10-17T19:51:24Z</time>
      </trkpt>
      <trkpt lat="45.85071" lon="2.96281">
        <ele>1032</ele>
        <time>2015-10-17T19:53:24Z</time>
      </trkpt>
      <trkpt lat="45.8506" lon="2.96246">
        <ele>1028</ele>
        <time>2015-10-17T19:55:24Z</time>
      </trkpt>
      <trkpt lat="45.85049" lon="2.9621">
        <ele>1024</ele>
        <time>2015-10-17T19:57:24Z</time>
      </trkpt>
      <trkpt lat="45.85036" lon="2.96191">
        <ele>1021</ele>
        <time>2015-10-17T19:59:24Z</time>
      </trkpt>
      <trkpt lat="45.85018" lon="2.9618">
        <ele>1018</ele>
        <time>2015-10-17T20:01:24Z</time>
      </trkpt>
      <trkpt lat="45.84968" lon="2.96133">
        <ele>1013</ele>
        <time>2015-10-17T20:03:24Z</time>
      </trkpt>
      <trkpt lat="45.84944" lon="2.96109">
        <ele>1011</ele>
        <time>2015-10-17T20:05:24Z</time>
      </trkpt>
      <trkpt lat="45.84913" lon="2.96073">
        <ele>1006</ele>
        <time>2015-10-17T20:07:24Z</time>
      </trkpt>
      <trkpt lat="45.84897" lon="2.96036">
        <ele>1004</ele>
        <time>2015-10-17T20:09:24Z</time>
      </trkpt>
      <trkpt lat="45.84886" lon="2.9601">
        <ele>1002</ele>
        <time>2015-10-17T20:11:24Z</time>
      </trkpt>
      <trkpt lat="45.84879" lon="2.95963">
        <ele>1001</ele>
        <time>2015-10-17T20:13:24Z</time>
      </trkpt>
      <trkpt lat="45.84867" lon="2.95914">
        <ele>999</ele>
        <time>2015-10-17T20:15:24Z</time>
      </trkpt>
      <trkpt lat="45.84855" lon="2.95867">
        <ele>996</ele>
        <time>2015-10-17T20:17:24Z</time>
      </trkpt>
      <trkpt lat="45.84846" lon="2.95817">
        <ele>993</ele>
        <time>2015-10-17T20:19:24Z</time>
      </trkpt>
      <trkpt lat="45.84829" lon="2.95749">
        <ele>990</ele>
        <time>2015-10-17T20:21:24Z</time>
      </trkpt>
      <trkpt lat="45.84822" lon="2.95716">
        <ele>990</ele>
        <time>2015-10-17T20:23:24Z</time>
      </trkpt>
      <trkpt lat="45.84807" lon="2.95637">
        <ele>990</ele>
        <time>2015-10-17T20:25:24Z</time>
      </trkpt>
      <trkpt lat="45.84801" lon="2.95601">
        <ele>989</ele>
        <time>2015-10-17T20:27:24Z</time>
      </trkpt>
      <trkpt lat="45.84795" lon="2.95571">
        <ele>989</ele>
        <time>2015-10-17T20:29:24Z</time>
      </trkpt>
      <trkpt lat="45.84774" lon="2.95541">
        <ele>989</ele>
        <time>2015-10-17T20:31:24Z</time>
      </trkpt>
      <trkpt lat="45.84755" lon="2.95498">
        <ele>988</ele>
        <time>2015-10-17T20:33:24Z</time>
      </trkpt>
      <trkpt lat="45.84732" lon="2.95442">
        <ele>990</ele>
        <time>2015-10-17T20:35:24Z</time>
      </trkpt>
      <trkpt lat="45.8471" lon="2.95392">
        <ele>990</ele>
        <time>2015-10-17T20:37:24Z</time>
      </trkpt>
      <trkpt lat="45.8468" lon="2.95341">
        <ele>988</ele>
        <time>2015-10-17T20:39:24Z</time>
      </trkpt>
      <trkpt lat="45.84669" lon="2.95317">
        <ele>988</ele>
        <time>2015-10-17T20:41:24Z</time>
      </trkpt>
      <trkpt lat="45.84653" lon="2.95287">
        <ele>988</ele>
        <time>2015-10-17T20:43:24Z</time>
      </trkpt>
      <trkpt lat="45.84637" lon="2.95249">
        <ele>988</ele>
        <time>2015-10-17T20:45:24Z</time>
      </trkpt>
      <trkpt lat="45.84623" lon="2.95189">
        <ele>986</ele>
        <time>2015-10-17T20:47:24Z</time>
      </trkpt>
      <trkpt lat="45.84613" lon="2.95131">
        <ele>983</ele>
        <time>2015-10-17T20:49:24Z</time>
      </trkpt>
      <trkpt lat="45.84611" lon="2.95086">
        <ele>980</ele>
        <time>2015-10-17T20:51:24Z</time>
      </trkpt>
      <trkpt lat="45.84602" lon="2.95049">
        <ele>977</ele>
        <time>2015-10-17T20:53:24Z</time>
      </trkpt>
      <trkpt lat="45.84569" lon="2.94965">
        <ele>973</ele>
        <time>2015-10-17T20:55:24Z</time>
      </trkpt>
      <trkpt lat="45.84563" lon="2.94935">
        <ele>973</ele>
        <time>2015-10-17T20:57:24Z</time>
      </trkpt>
      <trkpt lat="45.84553" lon="2.94914">
        <ele>972</ele>
        <time>2015-10-17T20:59:24Z</time>
      </trkpt>
      <trkpt lat="45.84544" lon="2.94892">
        <ele>970</ele>
        <time>2015-10-17T21:01:24Z</time>
      </trkpt>
      <trkpt lat="45.84526" lon="2.94865">
        <ele>968</ele>
        <time>2015-10-17T21:03:24Z</time>
      </trkpt>
      <trkpt lat="45.84518" lon="2.94843">
        <ele>966</ele>
        <time>2015-10-17T21:05:24Z</time>
      </trkpt>
      <trkpt lat="45.84508" lon="2.94815">
        <ele>963</ele>
        <time>2015-10-17T21:07:24Z</time>
      </trkpt>
      <trkpt lat="45.84496" lon="2.94777">
        <ele>961</ele>
        <time>2015-10-17T21:09:24Z</time>
      </trkpt>
      <trkpt lat="45.84503" lon="2.94727">
        <ele>959</ele>
        <time>2015-10-17T21:11:24Z</time>
      </trkpt>
      <trkpt lat="45.84499" lon="2.94689">
        <ele>958</ele>
        <time>2015-10-17T21:13:24Z</time>
      </trkpt>
      <trkpt lat="45.84499" lon="2.94652">
        <ele>957</ele>
        <time>2015-10-17T21:15:24Z</time>
      </trkpt>
      <trkpt lat="45.84496" lon="2.94624">
        <ele>957</ele>
        <time>2015-10-17T21:17:24Z</time>
      </trkpt>
      <trkpt lat="45.84492" lon="2.94575">
        <ele>957</ele>
        <time>2015-10-17T21:19:24Z</time>
      </trkpt>
      <trkpt lat="45.84489" lon="2.94504">
        <ele>957</ele>
        <time>2015-10-17T21:21:24Z</time>
      </trkpt>
      <trkpt lat="45.8448" lon="2.94453">
        <ele>956</ele>
        <time>2015-10-17T21:23:24Z</time>
      </trkpt>
      <trkpt lat="45.84475" lon="2.94427">
        <ele>955</ele>
        <time>2015-10-17T21:25:24Z</time>
      </trkpt>
      <trkpt lat="45.8448" lon="2.94375">
        <ele>954</ele>
        <time>2015-10-17T21:27:24Z</time>
      </trkpt>
      <trkpt lat="45.84472" lon="2.94313">
        <ele>953</ele>
        <time>2015-10-17T21:29:24Z</time>
      </trkpt>
      <trkpt lat="45.84463" lon="2.94285">
        <ele>952</ele>
        <time>2015-10-17T21:31:24Z</time>
      </trkpt>
      <trkpt lat="45.84456" lon="2.94247">
        <ele>950</ele>
        <time>2015-10-17T21:33:24Z</time>
      </trkpt>
      <trkpt lat="45.84448" lon="2.94195">
        <ele>949</ele>
        <time>2015-10-17T21:35:24Z</time>
      </trkpt>
      <trkpt lat="45.84442" lon="2.94172">
        <ele>949</ele>
        <time>2015-10-17T21:37:24Z</time>
      </trkpt>
      <trkpt lat="45.8443" lon="2.94094">
        <ele>948</ele>
        <time>2015-10-17T21:39:24Z</time>
      </trkpt>
      <trkpt lat="45.84414" lon="2.94034">
        <ele>948</ele>
        <time>2015-10-17T21:41:24Z</time>
      </trkpt>
      <trkpt lat="45.84462" lon="2.94062">
        <ele>949</ele>
        <time>2015-10-17T21:43:24Z</time>
      </trkpt>
      <trkpt lat="45.84518" lon="2.94094">
        <ele>951</ele>
        <time>2015-10-17T21:45:24Z</time>
      </trkpt>
      <trkpt lat="45.84559" lon="2.94133">
        <ele>954</ele>
        <time>2015-10-17T21:47:24Z</time>
      </trkpt>
      <trkpt lat="45.84608" lon="2.94154">
        <ele>959</ele>
        <time>2015-10-17T21:49:24Z</time>
      </trkpt>
      <trkpt lat="45.84662" lon="2.94148">
        <ele>965</ele>
        <time>2015-10-17T21:51:24Z</time>
      </trkpt>
      <trkpt lat="45.84702" lon="2.94178">
        <ele>972</ele>
        <time>2015-10-17T21:53:24Z</time>
      </trkpt>
      <trkpt lat="45.8477" lon="2.94229">
        <ele>986</ele>
        <time>2015-10-17T21:55:24Z</time>
      </trkpt>
      <trkpt lat="45.84801" lon="2.94189">
        <ele>984</ele>
        <time>2015-10-17T21:57:24Z</time>
      </trkpt>
      <trkpt lat="45.84826" lon="2.94178">
        <ele>985</ele>
        <time>2015-10-17T21:59:24Z</time>
      </trkpt>
      <trkpt lat="45.84832" lon="2.94229">
        <ele>994</ele>
        <time>2015-10-17T22:01:24Z</time>
      </trkpt>
      <trkpt lat="45.84865" lon="2.94225">
        <ele>997</ele>
        <time>2015-10-17T22:03:24Z</time>
      </trkpt>
      <trkpt lat="45.84888" lon="2.94232">
        <ele>1001</ele>
        <time>2015-10-17T22:05:24Z</time>
      </trkpt>
      <trkpt lat="45.84903" lon="2.94275">
        <ele>1012</ele>
        <time>2015-10-17T22:07:24Z</time>
      </trkpt>
      <trkpt lat="45.84949" lon="2.9429">
        <ele>1018</ele>
        <time>2015-10-17T22:09:24Z</time>
      </trkpt>
      <trkpt lat="45.85" lon="2.94309">
        <ele>1022</ele>
        <time>2015-10-17T22:11:24Z</time>
      </trkpt>
      <trkpt lat="45.8504" lon="2.94386">
        <ele>1039</ele>
        <time>2015-10-17T22:13:24Z</time>
      </trkpt>
      <trkpt lat="45.8507" lon="2.94425">
        <ele>1045</ele>
        <time>2015-10-17T22:15:24Z</time>
      </trkpt>
      <trkpt lat="45.85045" lon="2.94442">
        <ele>1049</ele>
        <time>2015-10-17T22:17:24Z</time>
      </trkpt>
      <trkpt lat="45.85024" lon="2.94474">
        <ele>1057</ele>
        <time>2015-10-17T22:19:24Z</time>
      </trkpt>
      <trkpt lat="45.85001" lon="2.94508">
        <ele>1064</ele>
        <time>2015-10-17T22:21:24Z</time>
      </trkpt>
      <trkpt lat="45.84982" lon="2.94536">
        <ele>1066</ele>
        <time>2015-10-17T22:23:24Z</time>
      </trkpt>
      <trkpt lat="45.84979" lon="2.94564">
        <ele>1069</ele>
        <time>2015-10-17T22:25:24Z</time>
      </trkpt>
      <trkpt lat="45.84977" lon="2.94618">
        <ele>1074</ele>
        <time>2015-10-17T22:27:24Z</time>
      </trkpt>
      <trkpt lat="45.84992" lon="2.94652">
        <ele>1077</ele>
        <time>2015-10-17T22:29:24Z</time>
      </trkpt>
      <trkpt lat="45.85006" lon="2.94702">
        <ele>1081</ele>
        <time>2015-10-17T22:31:24Z</time>
      </trkpt>
      <trkpt lat="45.85013" lon="2.9474">
        <ele>1084</ele>
        <time>2015-10-17T22:33:24Z</time>
      </trkpt>
      <trkpt lat="45.85031" lon="2.94798">
        <ele>1090</ele>
        <time>2015-10-17T22:35:24Z</time>
      </trkpt>
      <trkpt lat="45.85019" lon="2.94845">
        <ele>1098</ele>
        <time>2015-10-17T22:37:24Z</time>
      </trkpt>
      <trkpt lat="45.85028" lon="2.94888">
        <ele>1106</ele>
        <time>2015-10-17T22:39:24Z</time>
      </trkpt>
      <trkpt lat="45.85016" lon="2.9492">
        <ele>1111</ele>
        <time>2015-10-17T22:41:24Z</time>
      </trkpt>
      <trkpt lat="45.85015" lon="2.94948">
        <ele>1111</ele>
        <time>2015-10-17T22:43:24Z</time>
      </trkpt>
      <trkpt lat="45.85024" lon="2.94998">
        <ele>1115</ele>
        <time>2015-10-17T22:45:24Z</time>
      </trkpt>
      <trkpt lat="45.85043" lon="2.95038">
        <ele>1119</ele>
        <time>2015-10-17T22:47:24Z</time>
      </trkpt>
      <trkpt lat="45.85092" lon="2.95081">
        <ele>1140</ele>
        <time>2015-10-17T22:49:24Z</time>
      </trkpt>
      <trkpt lat="45.85137" lon="2.95105">
        <ele>1153</ele>
        <time>2015-10-17T22:51:24Z</time>
      </trkpt>
      <trkpt lat="45.85188" lon="2.95126">
        <ele>1168</ele>
        <time>2015-10-17T22:53:24Z</time>
      </trkpt>
      <trkpt lat="45.85242" lon="2.9512">
        <ele>1181</ele>
        <time>2015-10-17T22:55:24Z</time>
      </trkpt>
      <trkpt lat="45.85279" lon="2.95094">
        <ele>1183</ele>
        <time>2015-10-17T22:57:24Z</time>
      </trkpt>
      <trkpt lat="45.85337" lon="2.95006">
        <ele>1178</ele>
        <time>2015-10-17T22:59:24Z</time>
      </trkpt>
      <trkpt lat="45.85364" lon="2.9494">
        <ele>1164</ele>
        <time>2015-10-17T23:01:24Z</time>
      </trkpt>
      <trkpt lat="45.85373" lon="2.94869">
        <ele>1155</ele>
        <time>2015-10-17T23:03:24Z</time>
      </trkpt>
      <trkpt lat="45.85382" lon="2.94826">
        <ele>1149</ele>
        <time>2015-10-17T23:05:24Z</time>
      </trkpt>
      <trkpt lat="45.85397" lon="2.94815">
        <ele>1149</ele>
        <time>2015-10-17T23:07:24Z</time>
      </trkpt>
      <trkpt lat="45.85412" lon="2.94858">
        <ele>1155</ele>
        <time>2015-10-17T23:09:24Z</time>
      </trkpt>
      <trkpt lat="45.85429" lon="2.9489">
        <ele>1150</ele>
        <time>2015-10-17T23:11:24Z</time>
      </trkpt>
      <trkpt lat="45.85444" lon="2.94854">
        <ele>1139</ele>
        <time>2015-10-17T23:13:24Z</time>
      </trkpt>
      <trkpt lat="45.85438" lon="2.9482">
        <ele>1139</ele>
        <time>2015-10-17T23:15:24Z</time>
      </trkpt>
      <trkpt lat="45.85426" lon="2.94774">
        <ele>1139</ele>
        <time>2015-10-17T23:17:24Z</time>
      </trkpt>
      <trkpt lat="45.85424" lon="2.94742">
        <ele>1134</ele>
        <time>2015-10-17T23:19:24Z</time>
      </trkpt>
      <trkpt lat="45.85412" lon="2.94719">
        <ele>1131</ele>
        <time>2015-10-17T23:21:24Z</time>
      </trkpt>
      <trkpt lat="45.85396" lon="2.94684">
        <ele>1124</ele>
        <time>2015-10-17T23:23:24Z</time>
      </trkpt>
      <trkpt lat="45.85385" lon="2.94663">
        <ele>1121</ele>
        <time>2015-10-17T23:25:24Z</time>
      </trkpt>
      <trkpt lat="45.85357" lon="2.9462">
        <ele>1120</ele>
        <time>2015-10-17T23:27:24Z</time>
      </trkpt>
      <trkpt lat="45.85343" lon="2.94592">
        <ele>1120</ele>
        <time>2015-10-17T23:29:24Z</time>
      </trkpt>
      <trkpt lat="45.85324" lon="2.9456">
        <ele>1115</ele>
        <time>2015-10-17T23:31:24Z</time>
      </trkpt>
      <trkpt lat="45.85373" lon="2.94581">
        <ele>1106</ele>
        <time>2015-10-17T23:33:24Z</time>
      </trkpt>
      <trkpt lat="45.85397" lon="2.94609">
        <ele>1104</ele>
        <time>2015-10-17T23:35:24Z</time>
      </trkpt>
      <trkpt lat="45.85421" lon="2.94646">
        <ele>1107</ele>
        <time>2015-10-17T23:37:24Z</time>
      </trkpt>
      <trkpt lat="45.85444" lon="2.94682">
        <ele>1106</ele>
        <time>2015-10-17T23:39:24Z</time>
      </trkpt>
      <trkpt lat="45.85472" lon="2.94719">
        <ele>1102</ele>
        <time>2015-10-17T23:41:24Z</time>
      </trkpt>
      <trkpt lat="45.85494" lon="2.9477">
        <ele>1101</ele>
        <time>2015-10-17T23:43:24Z</time>
      </trkpt>
      <trkpt lat="45.85508" lon="2.94811">
        <ele>1098</ele>
        <time>2015-10-17T23:45:24Z</time>
      </trkpt>
      <trkpt lat="45.85521" lon="2.94854">
        <ele>1094</ele>
        <time>2015-10-17T23:47:24Z</time>
      </trkpt>
      <trkpt lat="45.8553" lon="2.94899">
        <ele>1091</ele>
        <time>2015-10-17T23:49:24Z</time>
      </trkpt>
      <trkpt lat="45.85538" lon="2.94929">
        <ele>1087</ele>
        <time>2015-10-17T23:51:24Z</time>
      </trkpt>
      <trkpt lat="45.85541" lon="2.94882">
        <ele>1083</ele>
        <time>2015-10-17T23:53:24Z</time>
      </trkpt>
      <trkpt lat="45.85538" lon="2.94839">
        <ele>1082</ele>
        <time>2015-10-17T23:55:24Z</time>
      </trkpt>
      <trkpt lat="45.85535" lon="2.94787">
        <ele>1077</ele>
        <time>2015-10-17T23:57:24Z</time>
      </trkpt>
      <trkpt lat="45.85532" lon="2.94738">
        <ele>1072</ele>
        <time>2015-10-17T23:59:24Z</time>
      </trkpt>
      <trkpt lat="45.85523" lon="2.94708">
        <ele>1071</ele>
        <time>2015-10-18T00:01:24Z</time>
      </trkpt>
      <trkpt lat="45.85518" lon="2.94682">
        <ele>1067</ele>
        <time>2015-10-18T00:03:24Z</time>
      </trkpt>
      <trkpt lat="45.85511" lon="2.94654">
        <ele>1065</ele>
        <time>2015-10-18T00:05:24Z</time>
      </trkpt>
      <trkpt lat="45.85502" lon="2.94622">
        <ele>1061</ele>
        <time>2015-10-18T00:07:24Z</time>
      </trkpt>
      <trkpt lat="45.85482" lon="2.94549">
        <ele>1051</ele>
        <time>2015-10-18T00:09:24Z</time>
      </trkpt>
      <trkpt lat="45.85463" lon="2.94496">
        <ele>1046</ele>
        <time>2015-10-18T00:11:24Z</time>
      </trkpt>
      <trkpt lat="45.85505" lon="2.94549">
        <ele>1040</ele>
        <time>2015-10-18T00:13:24Z</time>
      </trkpt>
      <trkpt lat="45.85529" lon="2.94594">
        <ele>1040</ele>
        <time>2015-10-18T00:15:24Z</time>
      </trkpt>
      <trkpt lat="45.85554" lon="2.94629">
        <ele>1035</ele>
        <time>2015-10-18T00:17:24Z</time>
      </trkpt>
      <trkpt lat="45.85569" lon="2.94669">
        <ele>1036</ele>
        <time>2015-10-18T00:19:24Z</time>
      </trkpt>
      <trkpt lat="45.85595" lon="2.94717">
        <ele>1029</ele>
        <time>2015-10-18T00:21:24Z</time>
      </trkpt>
      <trkpt lat="45.85615" lon="2.94757">
        <ele>1023</ele>
        <time>2015-10-18T00:23:24Z</time>
      </trkpt>
      <trkpt lat="45.85632" lon="2.94798">
        <ele>1018</ele>
        <time>2015-10-18T00:25:24Z</time>
      </trkpt>
      <trkpt lat="45.85645" lon="2.94835">
        <ele>1015</ele>
        <time>2015-10-18T00:27:24Z</time>
      </trkpt>
      <trkpt lat="45.85654" lon="2.94858">
        <ele>1012</ele>
        <time>2015-10-18T00:29:24Z</time>
      </trkpt>
      <trkpt lat="45.85674" lon="2.94905">
        <ele>1007</ele>
        <time>2015-10-18T00:31:24Z</time>
      </trkpt>
      <trkpt lat="45.85672" lon="2.9485">
        <ele>1001</ele>
        <time>2015-10-18T00:33:24Z</time>
      </trkpt>
      <trkpt lat="45.85665" lon="2.94785">
        <ele>995</ele>
        <time>2015-10-18T00:35:24Z</time>
      </trkpt>
      <trkpt lat="45.85662" lon="2.94757">
        <ele>993</ele>
        <time>2015-10-18T00:37:24Z</time>
      </trkpt>
      <trkpt lat="45.85656" lon="2.94736">
        <ele>994</ele>
        <time>2015-10-18T00:39:24Z</time>
      </trkpt>
      <trkpt lat="45.85656" lon="2.94671">
        <ele>983</ele>
        <time>2015-10-18T00:41:24Z</time>
      </trkpt>
      <trkpt lat="45.8565" lon="2.94635">
        <ele>982</ele>
        <time>2015-10-18T00:43:24Z</time>
      </trkpt>
      <trkpt lat="45.85644" lon="2.94614">
        <ele>983</ele>
        <time>2015-10-18T00:45:24Z</time>
      </trkpt>
      <trkpt lat="45.85635" lon="2.94573">
        <ele>981</ele>
        <time>2015-10-18T00:47:24Z</time>
      </trkpt>
      <trkpt lat="45.85626" lon="2.94532">
        <ele>978</ele>
        <time>2015-10-18T00:49:24Z</time>
      </trkpt>
      <trkpt lat="45.85648" lon="2.94532">
        <ele>968</ele>
        <time>2015-10-18T00:51:24Z</time>
      </trkpt>
      <trkpt lat="45.85677" lon="2.94577">
        <ele>963</ele>
        <time>2015-10-18T00:53:24Z</time>
      </trkpt>
      <trkpt lat="45.85708" lon="2.94605">
        <ele>956</ele>
        <time>2015-10-18T00:55:24Z</time>
      </trkpt>
      <trkpt lat="45.85745" lon="2.94639">
        <ele>945</ele>
        <time>2015-10-18T00:57:24Z</time>
      </trkpt>
      <trkpt lat="45.85778" lon="2.94674">
        <ele>941</ele>
        <time>2015-10-18T00:59:24Z</time>
      </trkpt>
      <trkpt lat="45.85816" lon="2.9471">
        <ele>937</ele>
        <time>2015-10-18T01:01:24Z</time>
      </trkpt>
      <trkpt lat="45.85843" lon="2.94751">
        <ele>933</ele>
        <time>2015-10-18T01:03:24Z</time>
      </trkpt>
      <trkpt lat="45.85861" lon="2.94802">
        <ele>931</ele>
        <time>2015-10-18T01:05:24Z</time>
      </trkpt>
      <trkpt lat="45.85873" lon="2.94883">
        <ele>934</ele>
        <time>2015-10-18T01:07:24Z</time>
      </trkpt>
      <trkpt lat="45.85891" lon="2.94965">
        <ele>935</ele>
        <time>2015-10-18T01:09:24Z</time>
      </trkpt>
      <trkpt lat="45.85923" lon="2.95064">
        <ele>933</ele>
        <time>2015-10-18T01:11:24Z</time>
      </trkpt>
      <trkpt lat="45.85941" lon="2.9497">
        <ele>935</ele>
        <time>2015-10-18T01:13:24Z</time>
      </trkpt>
      <trkpt lat="45.85963" lon="2.9488">
        <ele>932</ele>
        <time>2015-10-18T01:15:24Z</time>
      </trkpt>
      <trkpt lat="45.86016" lon="2.94781">
        <ele>921</ele>
        <time>2015-10-18T01:17:24Z</time>
      </trkpt>
      <trkpt lat="45.86055" lon="2.94719">
        <ele>916</ele>
        <time>2015-10-18T01:19:24Z</time>
      </trkpt>
      <trkpt lat="45.86111" lon="2.94618">
        <ele>905</ele>
        <time>2015-10-18T01:21:24Z</time>
      </trkpt>
      <trkpt lat="45.86156" lon="2.94568">
        <ele>899</ele>
        <time>2015-10-18T01:23:24Z</time>
      </trkpt>
      <trkpt lat="45.86203" lon="2.94508">
        <ele>894</ele>
        <time>2015-10-18T01:25:24Z</time>
      </trkpt>
      <trkpt lat="45.86229" lon="2.9445">
        <ele>888</ele>
        <time>2015-10-18T01:27:24Z</time>
      </trkpt>
      <trkpt lat="45.86252" lon="2.94395">
        <ele>883</ele>
        <time>2015-10-18T01:29:24Z</time>
      </trkpt>
      <trkpt lat="45.86267" lon="2.94335">
        <ele>880</ele>
        <time>2015-10-18T01:31:24Z</time>
      </trkpt>
      <trkpt lat="45.8627" lon="2.94268">
        <ele>876</ele>
        <time>2015-10-18T01:33:24Z</time>
      </trkpt>
      <trkpt lat="45.8627" lon="2.94197">
        <ele>872</ele>
        <time>2015-10-18T01:35:24Z</time>
      </trkpt>
      <trkpt lat="45.86279" lon="2.94144">
        <ele>871</ele>
        <time>2015-10-18T01:37:24Z</time>
      </trkpt>
      <trkpt lat="45.86285" lon="2.94038">
        <ele>868</ele>
        <time>2015-10-18T01:39:24Z</time>
      </trkpt>
      <trkpt lat="45.86295" lon="2.93946">
        <ele>865</ele>
        <time>2015-10-18T01:41:24Z</time>
      </trkpt>
      <trkpt lat="45.86315" lon="2.93993">
        <ele>868</ele>
        <time>2015-10-18T01:43:24Z</time>
      </trkpt>
      <trkpt lat="45.86352" lon="2.94043">
        <ele>870</ele>
        <time>2015-10-18T01:45:24Z</time>
      </trkpt>
      <trkpt lat="45.86386" lon="2.94096">
        <ele>872</ele>
        <time>2015-10-18T01:47:24Z</time>
      </trkpt>
      <trkpt lat="45.86416" lon="2.94141">
        <ele>874</ele>
        <time>2015-10-18T01:49:24Z</time>
      </trkpt>
      <trkpt lat="45.86468" lon="2.94195">
        <ele>872</ele>
        <time>2015-10-18T01:51:24Z</time>
      </trkpt>
      <trkpt lat="45.8651" lon="2.94257">
        <ele>868</ele>
        <time>2015-10-18T01:53:24Z</time>
      </trkpt>
      <trkpt lat="45.86536" lon="2.94315">
        <ele>867</ele>
        <time>2015-10-18T01:55:24Z</time>
      </trkpt>
      <trkpt lat="45.86579" lon="2.94367">
        <ele>867</ele>
        <time>2015-10-18T01:57:24Z</time>
      </trkpt>
      <trkpt lat="45.86648" lon="2.94453">
        <ele>872</ele>
        <time>2015-10-18T01:59:24Z</time>
      </trkpt>
      <trkpt lat="45.86696" lon="2.94498">
        <ele>872</ele>
        <time>2015-10-18T02:01:24Z</time>
      </trkpt>
      <trkpt lat="45.86739" lon="2.94521">
        <ele>873</ele>
        <time>2015-10-18T02:03:24Z</time>
      </trkpt>
      <trkpt lat="45.86787" lon="2.94556">
        <ele>876</ele>
        <time>2015-10-18T02:05:24Z</time>
      </trkpt>
      <trkpt lat="45.8679" lon="2.94674">
        <ele>883</ele>
        <time>2015-10-18T02:07:24Z</time>
      </trkpt>
      <trkpt lat="45.86799" lon="2.94755">
        <ele>886</ele>
        <time>2015-10-18T02:09:24Z</time>
      </trkpt>
      <trkpt lat="45.86806" lon="2.94815">
        <ele>888</ele>
        <time>2015-10-18T02:11:24Z</time>
      </trkpt>
      <trkpt lat="45.86815" lon="2.94858">
        <ele>889</ele>
        <time>2015-10-18T02:13:24Z</time>
      </trkpt>
      <trkpt lat="45.86802" lon="2.9489">
        <ele>890</ele>
        <time>2015-10-18T02:15:24Z</time>
      </trkpt>
      <trkpt lat="45.86791" lon="2.9491">
        <ele>892</ele>
        <time>2015-10-18T02:17:24Z</time>
      </trkpt>
      <trkpt lat="45.86784" lon="2.94946">
        <ele>895</ele>
        <time>2015-10-18T02:19:24Z</time>
      </trkpt>
      <trkpt lat="45.86767" lon="2.95068">
        <ele>903</ele>
        <time>2015-10-18T02:21:24Z</time>
      </trkpt>
      <trkpt lat="45.86755" lon="2.95184">
        <ele>907</ele>
        <time>2015-10-18T02:23:24Z</time>
      </trkpt>
      <trkpt lat="45.8677" lon="2.95311">
        <ele>909</ele>
        <time>2015-10-18T02:25:24Z</time>
      </trkpt>
      <trkpt lat="45.86814" lon="2.95283">
        <ele>904</ele>
        <time>2015-10-18T02:27:24Z</time>
      </trkpt>
      <trkpt lat="45.86835" lon="2.95253">
        <ele>901</ele>
        <time>2015-10-18T02:29:24Z</time>
      </trkpt>
      <trkpt lat="45.86864" lon="2.95197">
        <ele>901</ele>
        <time>2015-10-18T02:31:24Z</time>
      </trkpt>
      <trkpt lat="45.86941" lon="2.9515">
        <ele>900</ele>
        <time>2015-10-18T02:33:24Z</time>
      </trkpt>
      <trkpt lat="45.86994" lon="2.95103">
        <ele>899</ele>
        <time>2015-10-18T02:35:24Z</time>
      </trkpt>
      <trkpt lat="45.87038" lon="2.95107">
        <ele>899</ele>
        <time>2015-10-18T02:37:24Z</time>
      </trkpt>
      <trkpt lat="45.87098" lon="2.95098">
        <ele>896</ele>
        <time>2015-10-18T02:39:24Z</time>
      </trkpt>
      <trkpt lat="45.8713" lon="2.95068">
        <ele>892</ele>
        <time>2015-10-18T02:41:24Z</time>
      </trkpt>
      <trkpt lat="45.87181" lon="2.95032">
        <ele>888</ele>
        <time>2015-10-18T02:43:24Z</time>
      </trkpt>
      <trkpt lat="45.8723" lon="2.94974">
        <ele>884</ele>
        <time>2015-10-18T02:45:24Z</time>
      </trkpt>
      <trkpt lat="45.87242" lon="2.95019">
        <ele>883</ele>
        <time>2015-10-18T02:47:24Z</time>
      </trkpt>
      <trkpt lat="45.87272" lon="2.95073">
        <ele>881</ele>
        <time>2015-10-18T02:49:24Z</time>
      </trkpt>
      <trkpt lat="45.87305" lon="2.95109">
        <ele>881</ele>
        <time>2015-10-18T02:51:24Z</time>
      </trkpt>
      <trkpt lat="45.87317" lon="2.95148">
        <ele>881</ele>
        <time>2015-10-18T02:53:24Z</time>
      </trkpt>
      <trkpt lat="45.87311" lon="2.95204">
        <ele>883</ele>
        <time>2015-10-18T02:55:24Z</time>
      </trkpt>
      <trkpt lat="45.87304" lon="2.9524">
        <ele>885</ele>
        <time>2015-10-18T02:57:24Z</time>
      </trkpt>
      <trkpt lat="45.87305" lon="2.95292">
        <ele>889</ele>
        <time>2015-10-18T02:59:24Z</time>
      </trkpt>
      <trkpt lat="45.87308" lon="2.95343">
        <ele>893</ele>
        <time>2015-10-18T03:01:24Z</time>
      </trkpt>
      <trkpt lat="45.87313" lon="2.95386">
        <ele>893</ele>
        <time>2015-10-18T03:03:24Z</time>
      </trkpt>
      <trkpt lat="45.87329" lon="2.9544">
        <ele>892</ele>
        <time>2015-10-18T03:05:24Z</time>
      </trkpt>
      <trkpt lat="45.87323" lon="2.95493">
        <ele>890</ele>
        <time>2015-10-18T03:07:24Z</time>
      </trkpt>
      <trkpt lat="45.8732" lon="2.95547">
        <ele>889</ele>
        <time>2015-10-18T03:09:24Z</time>
      </trkpt>
      <trkpt lat="45.87305" lon="2.9559">
        <ele>889</ele>
        <time>2015-10-18T03:11:24Z</time>
      </trkpt>
      <trkpt lat="45.87292" lon="2.95609">
        <ele>890</ele>
        <time>2015-10-18T03:13:24Z</time>
      </trkpt>
      <trkpt lat="45.87272" lon="2.95659">
        <ele>892</ele>
        <time>2015-10-18T03:15:24Z</time>
      </trkpt>
      <trkpt lat="45.87238" lon="2.95706">
        <ele>897</ele>
        <time>2015-10-18T03:17:24Z</time>
      </trkpt>
      <trkpt lat="45.87204" lon="2.95725">
        <ele>899</ele>
        <time>2015-10-18T03:19:24Z</time>
      </trkpt>
      <trkpt lat="45.87159" lon="2.95772">
        <ele>897</ele>
        <time>2015-10-18T03:21:24Z</time>
      </trkpt>
      <trkpt lat="45.87124" lon="2.958">
        <ele>895</ele>
        <time>2015-10-18T03:23:24Z</time>
      </trkpt>
      <trkpt lat="45.87096" lon="2.95837">
        <ele>889</ele>
        <time>2015-10-18T03:25:24Z</time>
      </trkpt>
      <trkpt lat="45.87077" lon="2.95858">
        <ele>885</ele>
        <time>2015-10-18T03:27:24Z</time>
      </trkpt>
      <trkpt lat="45.87056" lon="2.95882">
        <ele>881</ele>
        <time>2015-10-18T03:29:24Z</time>
      </trkpt>
      <trkpt lat="45.87035" lon="2.95901">
        <ele>876</ele>
        <time>2015-10-18T03:31:24Z</time>
      </trkpt>
      <trkpt lat="45.87011" lon="2.9592">
        <ele>869</ele>
        <time>2015-10-18T03:33:24Z</time>
      </trkpt>
      <trkpt lat="45.86991" lon="2.95935">
        <ele>866</ele>
        <time>2015-10-18T03:35:24Z</time>
      </trkpt>
      <trkpt lat="45.86959" lon="2.95965">
        <ele>862</ele>
        <time>2015-10-18T03:37:24Z</time>
      </trkpt>
      <trkpt lat="45.8693" lon="2.95985">
        <ele>858</ele>
        <time>2015-10-18T03:39:24Z</time>
      </trkpt>
      <trkpt lat="45.86902" lon="2.9604">
        <ele>853</ele>
        <time>2015-10-18T03:41:24Z</time>
      </trkpt>
      <trkpt lat="45.86897" lon="2.96077">
        <ele>852</ele>
        <time>2015-10-18T03:43:24Z</time>
      </trkpt>
      <trkpt lat="45.86913" lon="2.96113">
        <ele>852</ele>
        <time>2015-10-18T03:45:24Z</time>
      </trkpt>
      <trkpt lat="45.86938" lon="2.96163">
        <ele>852</ele>
        <time>2015-10-18T03:47:24Z</time>
      </trkpt>
      <trkpt lat="45.86954" lon="2.96206">
        <ele>851</ele>
        <time>2015-10-18T03:49:24Z</time>
      </trkpt>
      <trkpt lat="45.86965" lon="2.96236">
        <ele>851</ele>
        <time>2015-10-18T03:51:24Z</time>
      </trkpt>
      <trkpt lat="45.86983" lon="2.96296">
        <ele>850</ele>
        <time>2015-10-18T03:53:24Z</time>
      </trkpt>
      <trkpt lat="45.86998" lon="2.9636">
        <ele>849</ele>
        <time>2015-10-18T03:55:24Z</time>
      </trkpt>
      <trkpt lat="45.8701" lon="2.96433">
        <ele>846</ele>
        <time>2015-10-18T03:57:24Z</time>
      </trkpt>
      <trkpt lat="45.87029" lon="2.96553">
        <ele>845</ele>
        <time>2015-10-18T03:59:24Z</time>
      </trkpt>
      <trkpt lat="45.87046" lon="2.96686">
        <ele>843</ele>
        <time>2015-10-18T04:01:24Z</time>
      </trkpt>
      <trkpt lat="45.87058" lon="2.96744">
        <ele>842</ele>
        <time>2015-10-18T04:03:24Z</time>
      </trkpt>
      <trkpt lat="45.87074" lon="2.96867">
        <ele>839</ele>
        <time>2015-10-18T04:05:24Z</time>
      </trkpt>
      <trkpt lat="45.87086" lon="2.96916">
        <ele>837</ele>
        <time>2015-10-18T04:07:24Z</time>
      </trkpt>
      <trkpt lat="45.87092" lon="2.96967">
        <ele>836</ele>
        <time>2015-10-18T04:09:24Z</time>
      </trkpt>
      <trkpt lat="45.87102" lon="2.97015">
        <ele>835</ele>
        <time>2015-10-18T04:11:24Z</time>
      </trkpt>
      <trkpt lat="45.87128" lon="2.97062">
        <ele>833</ele>
        <time>2015-10-18T04:13:24Z</time>
      </trkpt>
      <trkpt lat="45.87149" lon="2.97107">
        <ele>831</ele>
        <time>2015-10-18T04:15:24Z</time>
      </trkpt>
      <trkpt lat="45.87167" lon="2.97152">
        <ele>830</ele>
        <time>2015-10-18T04:17:24Z</time>
      </trkpt>
      <trkpt lat="45.87207" lon="2.97234">
        <ele>826</ele>
        <time>2015-10-18T04:19:24Z</time>
      </trkpt>
      <trkpt lat="45.87217" lon="2.97281">
        <ele>823</ele>
        <time>2015-10-18T04:21:24Z</time>
      </trkpt>
      <trkpt lat="45.87235" lon="2.9733">
        <ele>821</ele>
        <time>2015-10-18T04:23:24Z</time>
      </trkpt>
      <trkpt lat="45.87256" lon="2.97397">
        <ele>820</ele>
        <time>2015-10-18T04:25:24Z</time>
      </trkpt>
      <trkpt lat="45.87285" lon="2.97508">
        <ele>820</ele>
        <time>2015-10-18T04:27:24Z</time>
      </trkpt>
      <trkpt lat="45.873" lon="2.976">
        <ele>819</ele>
        <time>2015-10-18T04:29:24Z</time>
      </trkpt>
      <trkpt lat="45.8732" lon="2.97671">
        <ele>816</ele>
        <time>2015-10-18T04:31:24Z</time>
      </trkpt>
      <trkpt lat="45.87334" lon="2.97708">
        <ele>816</ele>
        <time>2015-10-18T04:33:24Z</time>
      </trkpt>
      <trkpt lat="45.87362" lon="2.97746">
        <ele>816</ele>
        <time>2015-10-18T04:35:24Z</time>
      </trkpt>
      <trkpt lat="45.87404" lon="2.97809">
        <ele>815</ele>
        <time>2015-10-18T04:37:24Z</time>
      </trkpt>
      <trkpt lat="45.87418" lon="2.97843">
        <ele>815</ele>
        <time>2015-10-18T04:39:24Z</time>
      </trkpt>
      <trkpt lat="45.87455" lon="2.9789">
        <ele>813</ele>
        <time>2015-10-18T04:41:24Z</time>
      </trkpt>
      <trkpt lat="45.87479" lon="2.97939">
        <ele>812</ele>
        <time>2015-10-18T04:43:24Z</time>
      </trkpt>
      <trkpt lat="45.87501" lon="2.97978">
        <ele>810</ele>
        <time>2015-10-18T04:45:24Z</time>
      </trkpt>
      <trkpt lat="45.87542" lon="2.98027">
        <ele>806</ele>
        <time>2015-10-18T04:47:24Z</time>
      </trkpt>
      <trkpt lat="45.87568" lon="2.98068">
        <ele>803</ele>
        <time>2015-10-18T04:49:24Z</time>
      </trkpt>
      <trkpt lat="45.8757" lon="2.98118">
        <ele>804</ele>
        <time>2015-10-18T04:51:24Z</time>
      </trkpt>
      <trkpt lat="45.87564" lon="2.98156">
        <ele>805</ele>
        <time>2015-10-18T04:53:24Z</time>
      </trkpt>
      <trkpt lat="45.87554" lon="2.9818">
        <ele>806</ele>
        <time>2015-10-18T04:55:24Z</time>
      </trkpt>
      <trkpt lat="45.87524" lon="2.98227">
        <ele>807</ele>
        <time>2015-10-18T04:57:24Z</time>
      </trkpt>
      <trkpt lat="45.87485" lon="2.98274">
        <ele>805</ele>
        <time>2015-10-18T04:59:24Z</time>
      </trkpt>
      <trkpt lat="45.87467" lon="2.98291">
        <ele>804</ele>
        <time>2015-10-18T05:01:24Z</time>
      </trkpt>
      <trkpt lat="45.87413" lon="2.98328">
        <ele>803</ele>
        <time>2015-10-18T05:03:24Z</time>
      </trkpt>
      <trkpt lat="45.87389" lon="2.98354">
        <ele>801</ele>
        <time>2015-10-18T05:05:24Z</time>
      </trkpt>
      <trkpt lat="45.8737" lon="2.98375">
        <ele>800</ele>
        <time>2015-10-18T05:07:24Z</time>
      </trkpt>
      <trkpt lat="45.87332" lon="2.98433">
        <ele>798</ele>
        <time>2015-10-18T05:09:24Z</time>
      </trkpt>
      <trkpt lat="45.87301" lon="2.98525">
        <ele>793</ele>
        <time>2015-10-18T05:11:24Z</time>
      </trkpt>
      <trkpt lat="45.87279" lon="2.9859">
        <ele>793</ele>
        <time>2015-10-18T05:13:24Z</time>
      </trkpt>
      <trkpt lat="45.87261" lon="2.98667">
        <ele>793</ele>
        <time>2015-10-18T05:15:24Z</time>
      </trkpt>
      <trkpt lat="45.87265" lon="2.98718">
        <ele>791</ele>
        <time>2015-10-18T05:17:24Z</time>
      </trkpt>
      <trkpt lat="45.8727" lon="2.98789">
        <ele>788</ele>
        <time>2015-10-18T05:19:24Z</time>
      </trkpt>
      <trkpt lat="45.87268" lon="2.98854">
        <ele>787</ele>
        <time>2015-10-18T05:21:24Z</time>
      </trkpt>
      <trkpt lat="45.87261" lon="2.98909">
        <ele>787</ele>
        <time>2015-10-18T05:23:24Z</time>
      </trkpt>
      <trkpt lat="45.87267" lon="2.98963">
        <ele>785</ele>
        <time>2015-10-18T05:25:24Z</time>
      </trkpt>
    </trkseg>
  </trk>
</gpx>